Time;durP1;ratioP1;P1;durP2;ratioP2;P2;SDS_P1;SDS_P2;PMS_P1;PMS_P2;Temp;Humidity;BMP_temperature;BMP_pressure;BME280_temperature;BME280_humidity;BME280_pressure;Samples;Min_cycle;Max_cycle;Signal;HPM_P1;HPM_P2
2021/07/22 00:01:52;;;;;;;3.07;2.40;;;;;;;24.23;48.20;97652.88;126910;1093;62757;-59
2021/07/22 00:04:19;;;;;;;3.17;2.50;;;;;;;24.23;48.36;97644.05;126852;1095;63003;-58
2021/07/22 00:06:47;;;;;;;3.27;2.30;;;;;;;24.22;48.21;97645.89;126896;1095;62626;-58
2021/07/22 00:09:14;;;;;;;3.53;2.43;;;;;;;24.21;48.02;97641.55;126937;1095;62716;-59
2021/07/22 00:11:45;;;;;;;2.67;2.30;;;;;;;24.22;48.03;97645.89;126900;1095;62687;-59
2021/07/22 00:14:13;;;;;;;3.30;2.60;;;;;;;24.21;48.05;97649.55;126882;1095;62780;-58
2021/07/22 00:16:40;;;;;;;3.33;2.40;;;;;;;24.21;48.33;97644.21;126930;1095;62676;-57
2021/07/22 00:19:08;;;;;;;2.77;2.20;;;;;;;24.23;47.97;97644.05;126901;1095;62652;-59
2021/07/22 00:21:35;;;;;;;3.40;2.50;;;;;;;24.21;48.12;97646.88;126882;1095;62700;-58
2021/07/22 00:24:02;;;;;;;3.43;2.60;;;;;;;24.21;47.92;97638.05;126989;1092;62696;-59
2021/07/22 00:26:30;;;;;;;2.97;2.57;;;;;;;24.20;48.10;97644.41;126951;1095;62616;-58
2021/07/22 00:29:00;;;;;;;3.77;2.43;;;;;;;24.19;48.04;97645.44;126894;1094;62577;-61
2021/07/22 00:31:27;;;;;;;3.10;2.10;;;;;;;24.19;48.01;97642.77;126898;1095;62576;-59
2021/07/22 00:33:54;;;;;;;2.40;2.17;;;;;;;24.18;48.18;97641.95;126898;1092;62605;-58
2021/07/22 00:36:21;;;;;;;3.13;2.70;;;;;;;24.19;48.05;97640.09;126836;1092;62707;-59
2021/07/22 00:38:51;;;;;;;2.67;2.40;;;;;;;24.18;48.06;97639.28;126909;1095;62770;-59
2021/07/22 00:41:19;;;;;;;2.65;2.25;;;;;;;24.19;47.79;97634.76;126877;1095;62621;-60
2021/07/22 00:43:46;;;;;;;3.73;2.53;;;;;;;24.18;47.81;97633.94;126901;1093;63047;-56
2021/07/22 00:46:13;;;;;;;2.80;2.23;;;;;;;24.17;47.80;97632.26;126895;1095;62696;-58
2021/07/22 00:48:41;;;;;;;2.60;2.27;;;;;;;24.16;48.04;97625.27;126874;1095;63152;-58
2021/07/22 00:51:08;;;;;;;3.20;2.70;;;;;;;24.16;47.85;97633.28;126865;1095;62700;-57
2021/07/22 00:53:35;;;;;;;2.57;2.33;;;;;;;24.16;47.98;97641.30;126851;1095;62999;-59
2021/07/22 00:56:04;;;;;;;3.20;2.47;;;;;;;24.16;47.85;97633.28;126906;1095;63050;-60
2021/07/22 00:58:32;;;;;;;3.07;2.47;;;;;;;24.15;48.04;97636.98;126960;1095;62572;-61
2021/07/22 01:00:59;;;;;;;2.50;2.30;;;;;;;24.17;47.65;97639.45;126971;1092;62640;-60
2021/07/22 01:03:26;;;;;;;2.80;2.50;;;;;;;24.14;47.75;97622.80;126911;1095;62616;-56
2021/07/22 01:05:54;;;;;;;2.37;2.07;;;;;;;24.15;47.69;97626.30;126862;1095;62639;-58
2021/07/22 01:08:21;;;;;;;2.33;2.13;;;;;;;24.16;47.57;97635.95;126910;1095;62661;-59
2021/07/22 01:10:48;;;;;;;2.93;2.67;;;;;;;24.15;47.89;97631.64;126876;1095;62604;-58
2021/07/22 01:13:15;;;;;;;3.13;2.23;;;;;;;24.16;47.91;97640.47;126856;1092;62710;-59
2021/07/22 01:15:42;;;;;;;2.37;2.17;;;;;;;24.14;47.84;97636.16;126868;1092;63033;-58
2021/07/22 01:18:10;;;;;;;2.60;2.17;;;;;;;24.14;47.69;97638.00;126930;1092;62617;-58
2021/07/22 01:20:37;;;;;;;3.70;2.60;;;;;;;24.11;47.91;97636.53;126906;1092;62572;-62
2021/07/22 01:23:04;;;;;;;3.00;2.37;;;;;;;24.14;47.70;97643.34;126907;1095;62620;-59
2021/07/22 01:25:31;;;;;;;2.40;2.20;;;;;;;24.14;47.64;97632.66;126880;1095;62673;-56
2021/07/22 01:27:58;;;;;;;2.70;2.30;;;;;;;24.12;47.87;97638.17;126906;1095;62761;-57
2021/07/22 01:30:25;;;;;;;3.03;2.60;;;;;;;24.12;47.52;97646.19;126888;1093;62633;-56
2021/07/22 01:32:53;;;;;;;3.53;2.50;;;;;;;24.11;47.38;97644.54;126904;1095;62632;-57
2021/07/22 01:35:20;;;;;;;2.80;2.50;;;;;;;24.11;47.58;97643.72;126905;1092;62621;-57
2021/07/22 01:37:50;;;;;;;3.03;2.60;;;;;;;24.09;47.61;97638.58;126845;1092;62657;-56
2021/07/22 01:40:17;;;;;;;2.90;2.50;;;;;;;24.10;47.79;97647.41;126999;1095;62649;-57
2021/07/22 01:42:45;;;;;;;2.53;2.30;;;;;;;24.09;47.57;97641.25;126931;1095;62652;-57
2021/07/22 01:45:12;;;;;;;2.83;2.50;;;;;;;24.09;47.40;97648.44;126886;1092;62619;-59
2021/07/22 01:47:40;;;;;;;2.97;2.50;;;;;;;24.08;47.65;97649.43;126871;1094;62673;-58
2021/07/22 01:50:09;;;;;;;3.33;2.30;;;;;;;24.07;47.45;97651.27;126938;1092;62603;-57
2021/07/22 01:52:36;;;;;;;2.80;2.43;;;;;;;24.06;47.54;97646.14;126945;1092;62623;-58
2021/07/22 01:55:04;;;;;;;3.00;2.40;;;;;;;24.07;47.73;97656.62;126900;1095;62632;-57
2021/07/22 01:57:31;;;;;;;2.87;2.40;;;;;;;24.06;47.67;97652.30;126908;1093;62635;-58
2021/07/22 02:00:04;;;;;;;2.73;2.40;;;;;;;24.06;47.44;97651.48;126878;1095;62641;-59
2021/07/22 02:02:32;;;;;;;2.70;2.30;;;;;;;24.05;47.50;97645.31;126854;1095;63003;-58
2021/07/22 02:04:59;;;;;;;3.13;2.37;;;;;;;24.06;47.59;97656.82;126937;1092;63099;-57
2021/07/22 02:07:26;;;;;;;2.87;2.40;;;;;;;24.06;47.66;97656.82;126862;1092;62676;-58
2021/07/22 02:09:53;;;;;;;2.73;2.07;;;;;;;24.05;47.73;97650.66;126884;1093;62625;-57
2021/07/22 02:12:20;;;;;;;3.13;2.47;;;;;;;24.05;47.78;97650.66;126898;1095;62623;-56
2021/07/22 02:14:50;;;;;;;3.23;2.53;;;;;;;24.06;47.49;97651.48;126868;1092;62619;-57
2021/07/22 02:17:20;;;;;;;3.20;2.63;;;;;;;24.07;47.74;97653.13;126930;1092;62569;-60
2021/07/22 02:19:48;;;;;;;3.10;2.30;;;;;;;24.05;47.74;97650.66;126889;1095;62593;-60
2021/07/22 02:22:15;;;;;;;3.17;2.30;;;;;;;24.05;47.50;97652.50;126953;1092;62619;-57
2021/07/22 02:24:42;;;;;;;3.27;2.53;;;;;;;24.04;47.41;97657.02;127022;1095;62623;-56
2021/07/22 02:27:10;;;;;;;3.30;2.63;;;;;;;24.03;47.64;97655.34;126948;1095;62602;-59
2021/07/22 02:29:37;;;;;;;2.73;2.43;;;;;;;24.03;47.49;97658.02;126889;1093;62601;-62
2021/07/22 02:32:05;;;;;;;2.97;2.67;;;;;;;24.03;47.65;97657.19;126897;1095;62638;-61
2021/07/22 02:34:32;;;;;;;2.80;2.50;;;;;;;24.03;47.38;97659.86;126995;1093;62617;-60
2021/07/22 02:36:59;;;;;;;2.90;2.60;;;;;;;24.03;47.57;97660.68;126928;1095;62683;-55
2021/07/22 02:39:26;;;;;;;2.50;2.30;;;;;;;24.01;47.46;97656.56;126889;1093;62652;-57
2021/07/22 02:41:54;;;;;;;3.27;2.40;;;;;;;24.01;47.51;97653.89;126899;1095;62652;-56
2021/07/22 02:44:21;;;;;;;3.27;2.70;;;;;;;24.01;47.53;97661.91;126853;1093;62571;-58
2021/07/22 02:46:48;;;;;;;2.80;2.40;;;;;;;24.00;47.35;97657.59;126840;1093;62642;-56
2021/07/22 02:49:15;;;;;;;3.00;2.47;;;;;;;23.99;47.60;97659.44;126536;1095;62633;-58
2021/07/22 02:51:42;;;;;;;3.50;2.50;;;;;;;24.00;47.33;97661.09;126875;1095;62687;-60
2021/07/22 02:54:11;;;;;;;3.40;2.70;;;;;;;24.01;47.42;97661.91;127020;1093;62706;-61
2021/07/22 02:56:39;;;;;;;2.97;2.60;;;;;;;24.02;47.26;97655.55;127093;1095;62641;-62
2021/07/22 02:59:06;;;;;;;2.80;2.50;;;;;;;24.02;47.50;97661.70;126995;1095;62629;-65
2021/07/22 03:01:33;;;;;;;3.70;2.77;;;;;;;24.02;47.32;97655.55;127013;1092;62607;-61
2021/07/22 03:04:00;;;;;;;3.23;2.27;;;;;;;24.03;47.48;97658.02;126975;1095;62684;-59
2021/07/22 03:06:27;;;;;;;3.20;2.60;;;;;;;24.02;47.32;97656.37;126902;1095;62617;-60
2021/07/22 03:08:55;;;;;;;3.20;2.60;;;;;;;24.02;47.45;97653.70;126864;1095;62830;-59
2021/07/22 03:11:22;;;;;;;3.40;2.47;;;;;;;24.02;47.19;97655.55;126933;1093;62726;-59
2021/07/22 03:13:49;;;;;;;3.47;2.30;;;;;;;24.03;47.39;97657.19;126908;1094;62686;-59
2021/07/22 03:16:16;;;;;;;3.20;2.50;;;;;;;24.03;47.32;97646.51;126870;1095;62665;-58
2021/07/22 03:18:43;;;;;;;2.87;2.40;;;;;;;24.03;47.31;97647.33;126855;1095;62690;-58
2021/07/22 03:21:11;;;;;;;2.77;2.40;;;;;;;24.04;47.06;97654.34;126880;1095;62626;-57
2021/07/22 03:23:38;;;;;;;3.57;2.47;;;;;;;24.03;47.49;97655.34;126904;1094;62584;-58
2021/07/22 03:26:05;;;;;;;3.50;2.60;;;;;;;24.04;47.16;97648.19;126874;1095;62574;-57
2021/07/22 03:28:32;;;;;;;3.20;2.90;;;;;;;24.05;47.06;97652.50;126867;1095;62703;-58
2021/07/22 03:30:59;;;;;;;3.43;2.60;;;;;;;24.06;47.04;97648.81;126828;1093;62712;-58
2021/07/22 03:33:26;;;;;;;3.63;2.30;;;;;;;24.06;47.31;97652.30;126891;1093;62620;-58
2021/07/22 03:35:53;;;;;;;3.87;2.67;;;;;;;24.06;47.17;97649.63;126902;1095;62658;-58
2021/07/22 03:38:20;;;;;;;3.07;2.47;;;;;;;24.07;47.21;97651.27;126872;1094;62643;-61
2021/07/22 03:40:48;;;;;;;3.23;2.67;;;;;;;24.07;47.21;97647.78;126851;1093;62847;-55
2021/07/22 03:43:15;;;;;;;3.23;2.60;;;;;;;24.08;46.91;97650.28;126934;1095;62590;-55
2021/07/22 03:45:42;;;;;;;3.23;2.50;;;;;;;24.09;47.15;97656.45;126943;1093;62649;-56
2021/07/22 03:48:09;;;;;;;2.93;2.63;;;;;;;24.09;46.97;97659.12;126880;1095;62611;-55
2021/07/22 03:50:36;;;;;;;4.57;3.00;;;;;;;24.10;46.95;97652.75;126901;1095;62626;-56
2021/07/22 03:53:03;;;;;;;2.47;2.27;;;;;;;24.11;47.01;97662.41;126884;1093;62635;-56
2021/07/22 03:55:30;;;;;;;2.63;2.17;;;;;;;24.12;46.89;97658.72;126923;1093;62837;-56
2021/07/22 03:57:57;;;;;;;3.00;2.57;;;;;;;24.13;46.86;97663.89;126864;1092;62561;-58
2021/07/22 04:00:25;;;;;;;3.57;3.10;;;;;;;24.15;46.86;97653.00;126836;1093;62627;-55
2021/07/22 04:03:01;;;;;;;3.00;2.50;;;;;;;24.16;46.94;97661.84;126889;1095;62572;-56
2021/07/22 04:05:28;;;;;;;3.23;2.67;;;;;;;24.17;46.82;97653.63;126873;1095;62634;-57
2021/07/22 04:07:59;;;;;;;3.30;3.00;;;;;;;24.18;47.15;97649.95;126912;1095;62599;-58
2021/07/22 04:10:28;;;;;;;3.37;2.50;;;;;;;24.23;47.11;97662.73;126913;1095;62608;-58
2021/07/22 04:12:58;;;;;;;3.30;2.58;;;;;;;24.25;46.88;97658.84;126913;1095;62623;-55
2021/07/22 04:15:26;;;;;;;2.93;2.57;;;;;;;24.29;46.91;97654.77;126900;1095;63073;-55
2021/07/22 04:17:54;;;;;;;3.67;2.33;;;;;;;24.32;46.81;97657.06;126907;1092;62716;-55
2021/07/22 04:20:22;;;;;;;2.70;2.30;;;;;;;24.36;46.55;97658.37;126931;1094;62620;-55
2021/07/22 04:22:49;;;;;;;3.20;2.70;;;;;;;24.40;46.46;97658.78;126901;1095;62564;-57
2021/07/22 04:25:16;;;;;;;4.07;2.60;;;;;;;24.44;46.49;97657.38;126910;1092;62635;-55
2021/07/22 04:27:43;;;;;;;2.90;2.50;;;;;;;24.48;46.34;97658.65;126919;1092;62607;-56
2021/07/22 04:30:11;;;;;;;3.10;2.57;;;;;;;24.54;46.31;97649.88;126884;1094;62616;-57
2021/07/22 04:32:38;;;;;;;3.30;2.73;;;;;;;24.56;46.58;97649.67;126872;1095;62741;-57
2021/07/22 04:35:09;;;;;;;3.70;2.50;;;;;;;24.60;46.15;97648.27;126890;1095;62633;-57
2021/07/22 04:37:36;;;;;;;2.80;2.50;;;;;;;24.66;46.14;97652.00;126939;1095;62674;-56
2021/07/22 04:40:06;;;;;;;3.30;2.70;;;;;;;24.72;46.30;97651.22;126938;1095;62683;-57
2021/07/22 04:42:33;;;;;;;3.43;2.53;;;;;;;24.77;46.27;97654.95;126973;1095;62617;-57
2021/07/22 04:45:01;;;;;;;3.30;2.67;;;;;;;24.83;46.20;97654.19;126916;1095;62767;-57
2021/07/22 04:47:28;;;;;;;2.93;2.47;;;;;;;24.94;45.86;97650.13;126907;1095;62612;-56
2021/07/22 04:49:55;;;;;;;3.53;2.60;;;;;;;25.09;45.82;97655.38;126905;1093;62693;-57
2021/07/22 04:52:22;;;;;;;3.07;2.60;;;;;;;25.20;45.36;97652.16;126883;1092;62626;-57
2021/07/22 04:54:49;;;;;;;2.87;2.47;;;;;;;25.30;45.49;97655.29;126946;1092;62620;-55
2021/07/22 04:57:16;;;;;;;3.10;2.60;;;;;;;25.37;45.26;97652.63;126893;1092;62622;-56
2021/07/22 04:59:43;;;;;;;3.77;2.63;;;;;;;25.44;45.11;97658.02;126910;1092;62584;-56
2021/07/22 05:02:10;;;;;;;3.00;2.43;;;;;;;25.47;45.00;97655.78;126896;1095;62928;-56
2021/07/22 05:04:37;;;;;;;3.23;2.30;;;;;;;25.50;44.89;97658.03;126881;1095;62616;-57
2021/07/22 05:07:05;;;;;;;3.60;2.43;;;;;;;25.55;44.78;97663.61;126890;1095;62671;-57
2021/07/22 05:09:32;;;;;;;3.30;2.60;;;;;;;25.60;44.74;97663.02;126875;1095;62660;-56
2021/07/22 05:11:59;;;;;;;3.07;2.77;;;;;;;25.65;44.55;97652.52;126891;1095;63076;-57
2021/07/22 05:14:27;;;;;;;3.83;2.70;;;;;;;25.71;44.53;97657.09;126822;1095;62632;-57
2021/07/22 05:16:54;;;;;;;4.17;2.60;;;;;;;25.76;44.48;97660.02;126992;1095;62678;-57
2021/07/22 05:19:21;;;;;;;2.73;2.37;;;;;;;25.83;44.40;97660.84;126830;1093;62614;-59
2021/07/22 05:21:48;;;;;;;3.23;2.70;;;;;;;25.87;44.30;97659.41;126902;1092;62572;-57
2021/07/22 05:24:15;;;;;;;3.63;3.00;;;;;;;25.90;44.48;97653.66;126901;1092;62651;-59
2021/07/22 05:26:42;;;;;;;3.10;2.60;;;;;;;25.93;44.38;97654.27;126898;1094;62993;-57
2021/07/22 05:29:10;;;;;;;3.43;2.90;;;;;;;25.92;44.42;97653.45;126858;1095;62623;-57
2021/07/22 05:31:43;;;;;;;3.03;2.67;;;;;;;25.90;44.13;97656.34;126838;1093;62617;-57
2021/07/22 05:34:10;;;;;;;2.83;2.43;;;;;;;25.89;44.21;97654.70;126903;1095;62786;-57
2021/07/22 05:36:38;;;;;;;2.83;2.43;;;;;;;25.89;44.16;97660.05;126877;1095;62652;-58
2021/07/22 05:39:05;;;;;;;3.47;2.43;;;;;;;25.89;44.15;97653.88;127037;1093;62620;-56
2021/07/22 05:41:33;;;;;;;2.87;2.50;;;;;;;25.89;44.60;97654.70;126954;1094;62625;-57
2021/07/22 05:44:00;;;;;;;4.10;3.00;;;;;;;25.92;44.38;97657.98;126848;1093;62594;-56
2021/07/22 05:46:27;;;;;;;2.87;2.50;;;;;;;25.96;44.36;97665.41;126873;1095;62674;-57
2021/07/22 05:48:54;;;;;;;3.17;2.60;;;;;;;26.00;44.42;97673.88;126907;1094;62620;-57
2021/07/22 05:51:22;;;;;;;3.77;2.90;;;;;;;26.06;43.85;97667.69;126886;1092;62649;-57
2021/07/22 05:53:49;;;;;;;3.57;3.13;;;;;;;26.11;43.76;97662.55;126888;1094;62664;-59
2021/07/22 05:56:18;;;;;;;4.17;3.07;;;;;;;26.18;43.77;97658.03;126926;1095;62852;-58
2021/07/22 05:58:45;;;;;;;4.08;2.88;;;;;;;26.38;42.99;97658.03;126902;1095;62572;-56
2021/07/22 06:01:12;;;;;;;3.90;3.10;;;;;;;26.80;42.49;97664.84;126879;1095;62709;-59
2021/07/22 06:03:39;;;;;;;3.30;2.80;;;;;;;27.11;42.10;97660.70;126880;1095;62617;-58
2021/07/22 06:06:06;;;;;;;4.37;3.37;;;;;;;27.33;41.46;97661.25;126839;1092;62602;-58
2021/07/22 06:08:34;;;;;;;5.00;3.20;;;;;;;27.44;41.25;97670.49;126872;1094;62636;-59
2021/07/22 06:11:08;;;;;;;3.80;3.13;;;;;;;27.69;40.54;97668.75;126880;1094;62783;-58
2021/07/22 06:13:36;;;;;;;3.63;2.97;;;;;;;28.30;39.83;97656.61;126882;1095;62706;-60
2021/07/22 06:16:03;;;;;;;3.80;3.10;;;;;;;29.11;38.58;97663.77;126895;1092;62690;-58
2021/07/22 06:18:31;;;;;;;4.43;2.83;;;;;;;29.91;37.41;97664.48;126889;1093;62591;-58
2021/07/22 06:20:59;;;;;;;4.00;2.67;;;;;;;30.67;36.39;97665.59;126997;1095;62693;-56
2021/07/22 06:23:26;;;;;;;3.70;2.77;;;;;;;31.22;35.37;97661.72;126940;1095;62876;-67
2021/07/22 06:28:43;;;;;;;4.80;3.20;;;;;;;31.30;34.19;97674.07;126971;1095;62584;-68
2021/07/22 06:31:10;;;;;;;4.37;3.40;;;;;;;31.35;33.98;97658.79;126914;1095;62641;-68
2021/07/22 06:33:37;;;;;;;4.40;3.50;;;;;;;31.78;33.36;97662.88;126859;1095;62594;-67
2021/07/22 06:36:23;;;;;;;4.77;3.50;;;;;;;32.14;32.71;97667.08;126917;1094;62719;-68
2021/07/22 06:38:50;;;;;;;3.87;3.10;;;;;;;32.08;32.46;97667.25;126856;1092;63028;-68
2021/07/22 06:41:21;;;;;;;4.05;3.25;;;;;;;32.54;31.89;97659.91;126933;1093;62719;-68
2021/07/22 06:43:49;;;;;;;3.97;3.20;;;;;;;32.55;31.48;97656.98;126896;1095;62644;-68
2021/07/22 06:46:16;;;;;;;5.47;3.20;;;;;;;32.34;31.42;97655.78;126887;1094;62694;-69
2021/07/22 06:48:44;;;;;;;3.63;3.30;;;;;;;32.07;31.61;97650.19;127010;1093;62620;-68
2021/07/22 06:51:11;;;;;;;6.43;3.27;;;;;;;31.81;31.47;97646.19;126917;1095;62568;-71
2021/07/22 06:53:38;;;;;;;4.75;3.35;;;;;;;31.57;31.84;97647.31;126874;1095;62646;-69
2021/07/22 06:56:24;;;;;;;4.33;3.37;;;;;;;31.34;32.26;97646.35;126881;1095;62619;-72
2021/07/22 06:58:51;;;;;;;5.73;3.70;;;;;;;31.13;32.59;97644.23;126877;1095;62659;-69
2021/07/22 07:01:18;;;;;;;4.30;3.53;;;;;;;31.58;32.31;97641.69;126926;1093;62619;-67
2021/07/22 07:03:45;;;;;;;4.00;3.30;;;;;;;32.14;31.83;97652.75;126862;1095;62619;-68
2021/07/22 07:06:12;;;;;;;4.60;3.15;;;;;;;32.20;31.65;97652.58;126899;1095;62643;-67
2021/07/22 07:08:40;;;;;;;4.37;3.53;;;;;;;32.44;31.40;97658.69;126873;1095;62621;-69
2021/07/22 07:11:08;;;;;;;4.88;3.30;;;;;;;33.07;30.81;97647.75;127006;1093;62588;-68
2021/07/22 07:13:35;;;;;;;3.93;3.10;;;;;;;33.58;30.04;97659.26;126958;1095;62767;-67
2021/07/22 07:16:06;;;;;;;3.75;2.70;;;;;;;34.23;29.44;97661.05;126900;1093;62864;-69
2021/07/22 07:18:33;;;;;;;6.33;3.20;;;;;;;34.90;28.57;97652.38;126871;1095;62627;-68
2021/07/22 07:21:04;;;;;;;3.70;2.77;;;;;;;35.35;28.30;97655.60;126887;1095;62617;-68
2021/07/22 07:23:32;;;;;;;9.73;3.70;;;;;;;35.94;27.22;97653.38;126863;1095;63089;-69
2021/07/22 07:26:00;;;;;;;4.75;3.05;;;;;;;36.34;26.92;97657.27;126893;1095;62607;-70
2021/07/22 07:28:27;;;;;;;3.30;2.60;;;;;;;36.96;26.47;97669.79;126860;1095;62636;-71
2021/07/22 07:30:54;;;;;;;4.98;2.80;;;;;;;37.57;25.71;97655.16;127055;1095;62643;-70
2021/07/22 07:33:21;;;;;;;4.53;2.80;;;;;;;38.14;25.26;97663.89;127012;1095;62662;-69
2021/07/22 07:35:49;;;;;;;4.17;2.60;;;;;;;38.63;24.71;97668.42;126996;1095;62620;-71
2021/07/22 07:38:16;;;;;;;4.60;2.95;;;;;;;39.05;24.48;97667.77;127115;1095;62674;-71
2021/07/22 07:40:44;;;;;;;5.27;2.90;;;;;;;39.46;23.83;97670.06;127036;1095;63025;-70
2021/07/22 07:43:19;;;;;;;4.78;2.83;;;;;;;39.82;23.50;97669.63;127023;1094;62616;-70
2021/07/22 07:45:46;;;;;;;4.33;2.93;;;;;;;40.13;22.98;97670.04;127021;1093;62627;-71
2021/07/22 07:48:13;;;;;;;5.23;3.00;;;;;;;40.45;23.32;97675.55;126957;1095;62690;-66
2021/07/22 07:50:40;;;;;;;3.83;2.53;;;;;;;40.34;23.22;97671.33;126868;1093;62678;-66
2021/07/22 07:53:15;;;;;;;4.48;3.25;;;;;;;40.46;23.04;97674.43;126832;1095;62608;-66
2021/07/22 07:55:43;;;;;;;4.58;2.85;;;;;;;40.84;22.55;97674.34;126941;1093;62637;-67
2021/07/22 07:58:10;;;;;;;4.45;2.80;;;;;;;41.24;22.14;97679.41;126908;1093;62623;-65
2021/07/22 08:00:38;;;;;;;5.50;2.90;;;;;;;41.47;21.77;97672.94;126848;1095;62621;-68
2021/07/22 08:03:05;;;;;;;6.10;3.10;;;;;;;41.72;21.48;97674.31;126821;1093;62607;-66
2021/07/22 08:05:32;;;;;;;4.00;2.93;;;;;;;41.98;21.40;97673.80;126808;1095;62914;-66
2021/07/22 08:07:59;;;;;;;6.45;3.10;;;;;;;42.20;20.83;97687.52;126900;1093;63005;-65
2021/07/22 08:10:27;;;;;;;4.53;2.90;;;;;;;42.38;20.75;97674.77;126899;1095;62575;-66
2021/07/22 08:12:54;;;;;;;4.85;3.00;;;;;;;42.56;20.28;97676.52;126906;1095;62628;-66
2021/07/22 08:15:21;;;;;;;3.58;2.90;;;;;;;42.65;20.28;97682.10;127022;1095;62659;-66
2021/07/22 08:17:48;;;;;;;3.75;2.70;;;;;;;42.73;19.71;97684.09;126929;1095;62672;-66
2021/07/22 08:20:15;;;;;;;3.83;2.90;;;;;;;42.80;19.60;97686.38;126980;1093;62620;-66
2021/07/22 08:22:42;;;;;;;3.70;2.90;;;;;;;42.83;19.39;97685.77;126928;1093;62671;-65
2021/07/22 08:25:10;;;;;;;4.15;3.00;;;;;;;42.82;19.16;97682.21;126880;1095;62629;-66
2021/07/22 08:27:38;;;;;;;4.63;3.48;;;;;;;42.60;18.81;97682.20;126918;1095;62628;-66
2021/07/22 08:30:06;;;;;;;3.47;2.80;;;;;;;42.37;18.92;97676.71;126874;1095;62627;-65
2021/07/22 08:32:33;;;;;;;5.70;3.37;;;;;;;42.05;19.05;97671.41;126856;1095;62591;-66
2021/07/22 08:35:00;;;;;;;4.70;3.30;;;;;;;41.61;19.27;97667.44;126911;1095;62589;-66
2021/07/22 08:37:27;;;;;;;4.30;3.20;;;;;;;41.17;19.43;97679.80;126810;1095;62638;-66
2021/07/22 08:39:57;;;;;;;5.98;3.20;;;;;;;41.10;19.64;97684.89;126821;1095;62627;-65
2021/07/22 08:42:26;;;;;;;3.90;3.03;;;;;;;41.17;19.70;97685.28;126806;1094;62707;-66
2021/07/22 08:44:53;;;;;;;4.43;3.18;;;;;;;41.26;19.53;97686.20;126928;1095;63025;-65
2021/07/22 08:47:20;;;;;;;5.27;3.07;;;;;;;41.29;19.44;97688.34;126467;1095;62565;-66
2021/07/22 08:49:48;;;;;;;4.20;2.80;;;;;;;41.26;19.18;97688.94;126773;1095;62670;-66
2021/07/22 08:52:15;;;;;;;4.63;3.33;;;;;;;41.16;19.05;97687.22;126808;1093;62658;-66
2021/07/22 08:54:42;;;;;;;4.20;3.03;;;;;;;41.03;18.96;97687.20;126788;1092;62755;-66
2021/07/22 08:57:10;;;;;;;5.10;2.80;;;;;;;40.81;19.10;97682.35;126853;1093;62681;-65
2021/07/22 08:59:37;;;;;;;3.77;3.13;;;;;;;40.37;19.41;97681.70;126838;1095;62632;-67
2021/07/22 09:02:05;;;;;;;6.35;3.70;;;;;;;39.73;20.18;97687.81;126817;1095;62639;-67
2021/07/22 09:05:04;;;;;;;8.95;5.20;;;;;;;38.87;20.85;97673.96;126865;1092;62710;-68
2021/07/22 09:07:32;;;;;;;7.85;4.78;;;;;;;37.90;21.75;97669.20;126818;1095;62697;-67
2021/07/22 09:10:20;;;;;;;7.23;4.33;;;;;;;37.15;22.11;97675.46;126800;1095;62636;-66
2021/07/22 09:12:49;;;;;;;5.65;4.30;;;;;;;36.37;22.76;97675.76;126872;1094;62620;-67
2021/07/22 09:15:27;;;;;;;5.30;4.10;;;;;;;35.76;23.38;97670.19;126871;1095;62619;-67
2021/07/22 09:17:55;;;;;;;5.28;3.55;;;;;;;35.14;23.80;97669.10;126920;1095;63310;-67
2021/07/22 09:20:40;;;;;;;4.88;3.50;;;;;;;34.61;24.07;97672.78;126781;1093;62750;-67
2021/07/22 09:23:07;;;;;;;3.90;3.15;;;;;;;34.08;24.48;97663.63;126846;1095;62671;-67
2021/07/22 09:25:45;;;;;;;4.27;3.47;;;;;;;33.65;24.84;97659.87;126791;1095;62585;-67
2021/07/22 09:28:13;;;;;;;4.77;3.50;;;;;;;33.23;25.24;97662.30;126828;1095;62668;-67
2021/07/22 09:31:02;;;;;;;4.03;3.25;;;;;;;32.85;25.35;97653.91;126920;1093;62660;-67
2021/07/22 09:33:42;;;;;;;4.50;3.60;;;;;;;32.46;25.51;97660.34;126795;1095;62787;-66
2021/07/22 09:36:21;;;;;;;4.15;3.65;;;;;;;32.13;25.84;97651.94;126803;1095;62588;-66
2021/07/22 09:38:48;;;;;;;5.40;3.60;;;;;;;31.87;26.34;97655.23;126810;1094;62619;-66
2021/07/22 09:41:19;;;;;;;4.10;3.43;;;;;;;31.63;26.65;97655.30;126421;1095;62677;-67
2021/07/22 09:43:46;;;;;;;4.85;3.95;;;;;;;31.41;26.68;97647.02;126923;1093;62633;-66
2021/07/22 09:46:14;;;;;;;4.90;3.80;;;;;;;31.23;26.51;97652.55;126866;1095;62640;-66
2021/07/22 09:49:07;;;;;;;4.88;3.55;;;;;;;31.04;26.62;97648.36;126858;1095;62993;-66
2021/07/22 09:51:35;;;;;;;4.93;3.73;;;;;;;30.82;26.79;97645.44;126889;1092;62569;-66
2021/07/22 09:54:09;;;;;;;4.13;3.60;;;;;;;30.63;26.98;97637.43;126829;1092;62608;-66
2021/07/22 09:56:39;;;;;;;4.13;3.40;;;;;;;30.48;27.27;97638.95;126892;1092;62620;-66
2021/07/22 09:59:08;;;;;;;4.55;3.35;;;;;;;30.32;27.62;97643.14;126866;1092;62684;-65
2021/07/22 10:01:42;;;;;;;4.65;3.80;;;;;;;30.19;27.87;97638.80;126919;1092;62614;-66
2021/07/22 10:04:09;;;;;;;4.17;3.57;;;;;;;30.06;27.88;97630.89;126904;1092;62639;-66
2021/07/22 10:06:36;;;;;;;4.33;3.63;;;;;;;29.96;28.22;97636.02;126904;1093;62617;-66
2021/07/22 10:09:03;;;;;;;4.27;3.60;;;;;;;29.84;28.36;97641.36;126893;1095;62610;-67
2021/07/22 10:11:32;;;;;;;4.83;3.93;;;;;;;29.74;28.50;97633.83;126855;1095;62629;-67
2021/07/22 10:13:59;;;;;;;3.80;3.40;;;;;;;29.67;28.34;97631.24;126886;1095;63082;-67
2021/07/22 10:16:28;;;;;;;3.93;3.53;;;;;;;29.62;28.38;97631.08;126998;1095;63025;-67
2021/07/22 10:18:55;;;;;;;5.13;3.90;;;;;;;29.58;28.37;97623.67;126937;1095;62540;-71
2021/07/22 10:21:22;;;;;;;4.40;3.50;;;;;;;29.55;28.32;97630.36;126941;1093;62671;-66
2021/07/22 10:23:49;;;;;;;4.07;3.43;;;;;;;29.52;28.34;97629.95;126868;1095;62588;-67
2021/07/22 10:26:16;;;;;;;3.70;3.30;;;;;;;29.48;28.49;97631.45;126889;1095;62703;-67
2021/07/22 10:28:43;;;;;;;5.43;3.83;;;;;;;29.45;28.33;97621.16;126856;1095;62720;-67
2021/07/22 10:31:10;;;;;;;4.40;3.60;;;;;;;29.39;28.39;97625.55;126902;1093;62632;-67
2021/07/22 10:33:38;;;;;;;3.77;3.37;;;;;;;29.33;28.17;97621.90;126854;1095;62607;-65
2021/07/22 10:36:06;;;;;;;5.20;3.67;;;;;;;29.25;28.33;97621.38;126854;1095;62675;-68
2021/07/22 10:38:47;;;;;;;4.15;3.50;;;;;;;29.17;28.60;97638.67;126939;1095;62623;-67
2021/07/22 10:41:37;;;;;;;5.80;3.73;;;;;;;29.10;28.63;97630.66;126899;1095;62655;-66
2021/07/22 10:44:13;;;;;;;4.20;3.33;;;;;;;29.04;28.71;97625.36;126961;1095;62687;-67
2021/07/22 10:47:00;;;;;;;5.10;3.33;;;;;;;28.98;28.68;97623.55;126932;1095;62587;-69
2021/07/22 10:49:37;;;;;;;4.33;3.70;;;;;;;28.96;28.93;97631.03;126950;1095;62594;-67
2021/07/22 10:52:05;;;;;;;4.30;3.75;;;;;;;28.93;28.86;97625.04;126995;1095;62623;-65
2021/07/22 10:54:38;;;;;;;5.23;3.67;;;;;;;28.92;29.07;97628.75;127011;1095;62675;-65
2021/07/22 10:57:05;;;;;;;4.80;3.63;;;;;;;28.89;28.79;97631.91;126844;1095;62632;-67
2021/07/22 10:59:53;;;;;;;4.63;3.63;;;;;;;28.85;28.90;97619.13;126917;1095;62738;-67
2021/07/22 11:02:41;;;;;;;4.30;3.63;;;;;;;28.79;29.19;97625.38;126918;1095;62625;-67
2021/07/22 11:05:32;;;;;;;4.37;3.77;;;;;;;28.74;29.40;97625.22;126930;1093;62684;-67
2021/07/22 11:08:21;;;;;;;4.97;4.00;;;;;;;28.71;29.39;97626.50;126875;1093;62617;-67
2021/07/22 11:10:54;;;;;;;3.80;3.38;;;;;;;28.65;29.44;97624.68;126925;1093;62632;-67
2021/07/22 11:13:37;;;;;;;4.93;3.70;;;;;;;28.62;29.25;97625.96;126888;1095;62625;-67
2021/07/22 11:16:05;;;;;;;4.97;3.67;;;;;;;28.61;29.25;97620.78;126911;1095;62646;-67
2021/07/22 11:18:42;;;;;;;5.90;3.90;;;;;;;28.60;29.37;97611.90;126888;1093;62633;-67
2021/07/22 11:21:16;;;;;;;5.50;4.40;;;;;;;28.59;29.51;97602.19;126891;1095;62643;-66
2021/07/22 11:24:05;;;;;;;4.93;3.57;;;;;;;28.57;29.57;97619.61;126840;1093;62661;-66
2021/07/22 11:26:39;;;;;;;4.93;3.65;;;;;;;28.48;29.53;97616.38;126912;1095;62652;-67
2021/07/22 11:29:07;;;;;;;4.87;3.30;;;;;;;28.40;29.58;97612.09;126868;1095;62642;-67
2021/07/22 11:31:42;;;;;;;5.20;4.00;;;;;;;28.34;29.58;97604.91;126918;1095;62674;-66
2021/07/22 11:34:09;;;;;;;4.17;3.63;;;;;;;28.31;30.07;97599.94;126895;1095;62626;-66
2021/07/22 11:36:36;;;;;;;5.07;3.70;;;;;;;28.24;30.11;97601.88;126871;1095;62647;-67